createdAt,value
2022-08-23T00:02:25.574Z,100.00
2022-08-23T00:05:07.679Z,100.00
2022-08-23T00:07:45.224Z,100.00
2022-08-23T00:10:16.074Z,100.00
2022-08-23T00:12:45.243Z,100.00
2022-08-23T00:15:16.950Z,100.00
2022-08-23T00:17:45.027Z,100.00
2022-08-23T00:20:19.742Z,100.00
2022-08-23T00:22:49.402Z,100.00
2022-08-23T00:25:17.483Z,100.00
2022-08-23T00:27:46.036Z,100.00
2022-08-23T00:30:15.941Z,100.00
2022-08-23T00:32:44.252Z,100.00
2022-08-23T00:35:14.370Z,100.00
2022-08-23T00:38:32.054Z,100.00
2022-08-23T00:40:46.411Z,100.00
2022-08-23T00:43:34.782Z,100.00
2022-08-23T00:46:27.851Z,100.00
2022-08-23T00:48:56.691Z,100.00
2022-08-23T00:51:29.212Z,100.00
2022-08-23T00:54:01.669Z,100.00
2022-08-23T00:56:32.802Z,100.00
2022-08-23T00:59:00.892Z,100.00
2022-08-23T01:01:29.129Z,100.00
2022-08-23T01:04:04.392Z,100.00
2022-08-23T01:06:38.143Z,100.00
2022-08-23T01:09:10.222Z,100.00
2022-08-23T01:11:44.042Z,100.00
2022-08-23T01:14:15.167Z,100.00
2022-08-23T01:16:47.310Z,100.00
2022-08-23T01:19:22.665Z,100.00
2022-08-23T01:21:56.431Z,100.00
2022-08-23T01:24:59.819Z,100.00
2022-08-23T01:27:15.194Z,100.00
2022-08-23T01:29:43.659Z,100.00
2022-08-23T01:32:12.010Z,100.00
2022-08-23T01:34:45.853Z,100.00
2022-08-23T01:37:21.216Z,100.00
2022-08-23T01:39:50.586Z,100.00
2022-08-23T01:42:18.482Z,100.00
2022-08-23T01:44:46.376Z,100.00
2022-08-23T01:47:14.328Z,100.00
2022-08-23T01:49:42.254Z,100.00
2022-08-23T01:52:10.310Z,100.00
2022-08-23T01:54:38.228Z,100.00
2022-08-23T01:57:10.947Z,100.00
2022-08-23T01:59:39.207Z,100.00
2022-08-23T02:02:07.905Z,100.00
2022-08-23T02:04:38.850Z,100.00
2022-08-23T02:07:06.842Z,100.00
2022-08-23T02:09:34.723Z,100.00
2022-08-23T02:12:02.690Z,100.00
2022-08-23T02:14:32.010Z,100.00
2022-08-23T02:17:04.931Z,100.00
2022-08-23T02:19:36.982Z,100.00
2022-08-23T02:22:06.801Z,100.00
2022-08-23T02:24:35.131Z,100.00
2022-08-23T02:27:05.725Z,100.00
2022-08-23T02:29:39.533Z,100.00
2022-08-23T02:32:08.008Z,100.00
2022-08-23T02:34:38.126Z,100.00
2022-08-23T02:37:06.946Z,100.00
2022-08-23T02:39:35.025Z,100.00
2022-08-23T02:42:07.137Z,100.00
2022-08-23T02:44:35.620Z,100.00
2022-08-23T02:47:07.654Z,100.00
2022-08-23T02:49:35.958Z,100.00
2022-08-23T02:52:04.937Z,100.00
2022-08-23T02:54:32.939Z,100.00
2022-08-23T02:57:00.972Z,100.00
2022-08-23T02:59:29.167Z,100.00
2022-08-23T03:01:57.378Z,100.00
2022-08-23T03:04:26.997Z,100.00
2022-08-23T03:06:55.008Z,100.00
2022-08-23T03:09:22.947Z,100.00
2022-08-23T03:11:51.130Z,100.00
2022-08-23T03:14:19.055Z,100.00
2022-08-23T03:16:46.958Z,100.00
2022-08-23T03:19:15.204Z,100.00
2022-08-23T03:21:44.494Z,100.00
2022-08-23T03:24:13.095Z,100.00
2022-08-23T03:26:42.866Z,100.00
2022-08-23T03:29:11.151Z,100.00
2022-08-23T03:31:39.420Z,100.00
2022-08-23T03:34:09.934Z,100.00
2022-08-23T03:36:40.324Z,100.00
2022-08-23T03:39:11.813Z,100.00
2022-08-23T03:41:40.056Z,100.00
2022-08-23T03:44:07.979Z,100.00
2022-08-23T03:46:36.231Z,100.00
2022-08-23T03:49:06.022Z,100.00
2022-08-23T03:51:35.730Z,100.00
2022-08-23T03:54:03.839Z,100.00
2022-08-23T03:56:35.458Z,100.00
2022-08-23T03:59:06.501Z,100.00
2022-08-23T04:01:34.417Z,100.00
2022-08-23T04:04:02.382Z,100.00
2022-08-23T04:06:33.119Z,100.00
2022-08-23T04:09:01.515Z,100.00
2022-08-23T04:11:29.555Z,100.00
2022-08-23T04:13:58.910Z,100.00
2022-08-23T04:16:26.775Z,100.00
2022-08-23T04:18:54.702Z,100.00
2022-08-23T04:21:25.063Z,100.00
2022-08-23T04:23:54.079Z,100.00
2022-08-23T04:26:22.075Z,100.00
2022-08-23T04:28:53.619Z,100.00
2022-08-23T04:31:23.188Z,100.00
2022-08-23T04:33:52.660Z,100.00
2022-08-23T04:36:20.916Z,100.00
2022-08-23T04:38:51.523Z,100.00
2022-08-23T04:41:37.422Z,100.00
2022-08-23T04:44:06.355Z,100.00
2022-08-23T04:46:35.643Z,100.00
2022-08-23T04:49:04.255Z,100.00
2022-08-23T04:51:32.315Z,100.00
2022-08-23T04:54:00.247Z,100.00
2022-08-23T04:56:28.523Z,100.00
2022-08-23T04:58:56.420Z,100.00
2022-08-23T05:01:25.575Z,100.00
2022-08-23T05:03:55.741Z,100.00
2022-08-23T05:06:24.422Z,100.00
2022-08-23T05:08:52.358Z,100.00
2022-08-23T05:11:20.627Z,100.00
2022-08-23T05:13:49.077Z,100.00
2022-08-23T05:16:17.055Z,100.00
2022-08-23T05:18:45.190Z,100.00
2022-08-23T05:21:17.583Z,100.00
2022-08-23T05:23:50.954Z,100.00
2022-08-23T05:26:23.100Z,100.00
2022-08-23T05:28:51.126Z,100.00
2022-08-23T05:31:21.498Z,100.00
2022-08-23T05:33:49.890Z,100.00
2022-08-23T05:36:20.462Z,100.00
2022-08-23T05:38:48.422Z,100.00
2022-08-23T05:41:17.783Z,100.00
2022-08-23T05:43:49.292Z,100.00
2022-08-23T05:46:19.857Z,100.00
2022-08-23T05:48:51.196Z,100.00
2022-08-23T05:51:22.900Z,100.00
2022-08-23T05:53:52.446Z,100.00
2022-08-23T05:56:22.902Z,100.00
2022-08-23T05:58:52.119Z,100.00
2022-08-23T06:01:21.768Z,100.00
2022-08-23T06:03:50.514Z,100.00
2022-08-23T06:06:21.363Z,100.00
2022-08-23T06:08:50.333Z,100.00
2022-08-23T06:11:20.631Z,100.00
2022-08-23T06:13:50.788Z,100.00
2022-08-23T06:16:20.937Z,100.00
2022-08-23T06:18:49.604Z,100.00
2022-08-23T06:21:18.555Z,100.00
2022-08-23T06:23:49.446Z,100.00
2022-08-23T06:26:20.789Z,100.00
2022-08-23T06:28:51.239Z,100.00
2022-08-23T06:31:41.907Z,100.00
2022-08-23T06:34:10.830Z,100.00
2022-08-23T06:36:38.877Z,100.00
2022-08-23T06:39:09.690Z,100.00
2022-08-23T06:41:39.855Z,100.00
2022-08-23T06:44:08.168Z,100.00
2022-08-23T06:46:36.529Z,100.00
2022-08-23T06:49:05.560Z,100.00
2022-08-23T06:51:35.819Z,100.00
2022-08-23T06:54:06.387Z,100.00
2022-08-23T06:56:36.395Z,100.00
2022-08-23T06:59:06.460Z,100.00
2022-08-23T07:01:46.373Z,100.00
2022-08-23T07:04:20.482Z,100.00
2022-08-23T07:06:48.870Z,100.00
2022-08-23T07:09:18.533Z,100.00
2022-08-23T07:11:47.894Z,100.00
2022-08-23T07:14:21.174Z,100.00
2022-08-23T07:16:51.418Z,100.00
2022-08-23T07:19:21.973Z,100.00
2022-08-23T07:21:57.380Z,100.00
2022-08-23T07:24:29.479Z,100.00
2022-08-23T07:27:06.460Z,100.00
2022-08-23T07:29:34.811Z,100.00
2022-08-23T07:32:03.055Z,100.00
2022-08-23T07:34:31.246Z,100.00
2022-08-23T07:36:59.244Z,100.00
2022-08-23T07:39:27.264Z,100.00
2022-08-23T07:42:01.483Z,100.00
2022-08-23T07:44:49.430Z,100.00
2022-08-23T07:47:19.663Z,100.00
2022-08-23T07:49:47.859Z,100.00
2022-08-23T07:52:15.745Z,100.00
2022-08-23T07:54:48.497Z,100.00
2022-08-23T07:57:19.997Z,100.00
2022-08-23T07:59:48.634Z,100.00
2022-08-23T08:02:16.786Z,100.00
2022-08-23T08:04:44.859Z,100.00
2022-08-23T08:07:21.174Z,100.00
2022-08-23T08:09:49.514Z,100.00
2022-08-23T08:12:19.083Z,100.00
2022-08-23T08:14:48.806Z,100.00
2022-08-23T08:17:18.120Z,100.00
2022-08-23T08:19:47.156Z,100.00
2022-08-23T08:22:15.225Z,100.00
2022-08-23T08:24:43.650Z,100.00
2022-08-23T08:27:11.878Z,100.00
2022-08-23T08:29:42.054Z,100.00
2022-08-23T08:32:13.690Z,100.00
2022-08-23T08:34:42.536Z,100.00
2022-08-23T08:37:10.547Z,100.00
2022-08-23T08:39:45.595Z,100.00
2022-08-23T08:42:46.520Z,100.00
2022-08-23T08:45:17.624Z,100.00
2022-08-23T08:47:50.442Z,100.00
2022-08-23T08:50:24.120Z,100.00
2022-08-23T08:52:56.331Z,100.00
2022-08-23T08:55:32.416Z,100.00
2022-08-23T08:58:02.571Z,100.00
2022-08-23T09:00:35.126Z,100.00
2022-08-23T09:03:12.180Z,100.00
2022-08-23T09:05:46.855Z,100.00
2022-08-23T09:08:35.713Z,100.00
2022-08-23T09:11:10.214Z,100.00
2022-08-23T09:14:16.650Z,100.00
2022-08-23T09:16:52.633Z,100.00
2022-08-23T09:19:22.292Z,100.00
2022-08-23T09:21:57.982Z,100.00
2022-08-23T09:24:26.963Z,100.00
2022-08-23T09:26:56.249Z,100.00
2022-08-23T09:29:26.580Z,100.00
2022-08-23T09:31:58.526Z,100.00
2022-08-23T09:34:43.512Z,100.00
2022-08-23T09:37:19.104Z,100.00
2022-08-23T09:39:50.849Z,100.00
2022-08-23T09:42:37.783Z,100.00
2022-08-23T09:45:07.167Z,100.00
2022-08-23T09:47:44.620Z,100.00
2022-08-23T09:50:25.263Z,100.00
2022-08-23T09:52:57.406Z,100.00
2022-08-23T09:55:32.926Z,100.00
2022-08-23T09:58:02.023Z,100.00
2022-08-23T10:00:34.036Z,100.00
2022-08-23T10:03:26.355Z,100.00
2022-08-23T10:05:56.811Z,100.00
2022-08-23T10:08:28.655Z,97.80
2022-08-23T10:10:59.773Z,100.00
2022-08-23T10:13:28.607Z,100.00
2022-08-23T10:16:06.625Z,100.00
2022-08-23T10:18:52.427Z,100.00
2022-08-23T10:21:26.397Z,100.00
2022-08-23T10:24:14.286Z,100.00
2022-08-23T10:26:52.078Z,99.45
2022-08-23T10:29:38.075Z,96.87
2022-08-23T10:32:19.199Z,96.69
2022-08-23T10:35:03.218Z,93.54
2022-08-23T10:37:56.780Z,91.13
2022-08-23T10:40:29.599Z,95.33
2022-08-23T10:43:09.741Z,96.68
2022-08-23T10:45:39.463Z,94.22
2022-08-23T10:48:22.032Z,92.60
2022-08-23T10:50:58.606Z,96.34
2022-08-23T10:53:36.446Z,94.26
2022-08-23T10:56:06.308Z,96.01
2022-08-23T10:58:41.125Z,97.90
2022-08-23T11:01:11.880Z,98.45
2022-08-23T11:03:47.806Z,95.32
2022-08-23T11:06:47.775Z,96.83
2022-08-23T11:09:50.222Z,93.55
2022-08-23T11:12:31.974Z,92.20
2022-08-23T11:15:23.118Z,93.15
2022-08-23T11:17:58.234Z,92.26
2022-08-23T11:21:03.862Z,87.64
2022-08-23T11:24:19.079Z,91.88
2022-08-23T11:27:07.618Z,86.04
2022-08-23T11:29:38.882Z,90.41
2022-08-23T11:32:38.032Z,88.62
2022-08-23T11:35:10.972Z,93.97
2022-08-23T11:38:00.437Z,93.40
2022-08-23T11:41:01.366Z,93.18
2022-08-23T11:43:34.690Z,94.10
2022-08-23T11:46:22.067Z,90.99
2022-08-23T11:48:58.518Z,94.48
2022-08-23T11:51:37.107Z,93.34
2022-08-23T11:54:32.293Z,88.74
2022-08-23T11:57:19.438Z,89.78
2022-08-23T12:00:07.656Z,91.23
2022-08-23T12:03:01.846Z,86.95
2022-08-23T12:06:03.498Z,91.66
2022-08-23T12:08:46.047Z,94.29
2022-08-23T12:11:15.265Z,93.94
2022-08-23T12:13:53.822Z,93.27
2022-08-23T12:16:44.322Z,92.30
2022-08-23T12:19:26.483Z,93.76
2022-08-23T12:21:57.591Z,93.89
2022-08-23T12:24:32.686Z,90.87
2022-08-23T12:27:09.733Z,89.49
2022-08-23T12:29:59.775Z,92.00
2022-08-23T12:32:40.132Z,93.20
2022-08-23T12:35:26.690Z,96.19
2022-08-23T12:38:02.049Z,99.00
2022-08-23T12:40:35.190Z,100.00
2022-08-23T12:43:08.238Z,99.76
2022-08-23T12:45:42.260Z,98.12
2022-08-23T12:48:20.256Z,98.58
2022-08-23T12:50:55.495Z,94.96
2022-08-23T12:53:30.141Z,95.19
2022-08-23T12:56:03.366Z,92.73
2022-08-23T12:58:35.019Z,94.29
2022-08-23T13:01:07.588Z,95.39
2022-08-23T13:03:39.983Z,92.64
2022-08-23T13:06:12.236Z,92.49
2022-08-23T13:08:45.819Z,95.20
2022-08-23T13:11:16.002Z,97.00
2022-08-23T13:13:45.482Z,90.46
2022-08-23T13:16:29.518Z,87.76
2022-08-23T13:19:16.627Z,84.66
2022-08-23T13:21:45.364Z,86.73
2022-08-23T13:24:38.479Z,87.54
2022-08-23T13:27:16.882Z,88.66
2022-08-23T13:29:56.568Z,85.81
2022-08-23T13:32:41.665Z,92.32
2022-08-23T13:35:34.604Z,92.44
2022-08-23T13:38:11.321Z,92.79
2022-08-23T13:40:46.042Z,90.20
2022-08-23T13:43:20.989Z,88.58
2022-08-23T13:45:51.790Z,91.33
2022-08-23T13:48:22.683Z,88.84
2022-08-23T13:50:52.689Z,89.07
2022-08-23T13:53:22.376Z,92.80
2022-08-23T13:55:53.576Z,89.00
2022-08-23T13:58:30.135Z,89.68
2022-08-23T14:00:58.829Z,91.32
2022-08-23T14:03:29.140Z,90.97
2022-08-23T14:05:58.754Z,92.64
2022-08-23T14:08:26.662Z,95.86
2022-08-23T14:10:54.751Z,96.82
2022-08-23T14:13:25.471Z,96.86
2022-08-23T14:15:56.368Z,95.98
2022-08-23T14:18:24.736Z,97.51
2022-08-23T14:20:53.677Z,98.47
2022-08-23T14:23:25.702Z,99.49
2022-08-23T14:25:58.973Z,96.19
2022-08-23T14:28:30.261Z,94.53
2022-08-23T14:30:58.413Z,97.82
2022-08-23T14:33:26.494Z,100.00
2022-08-23T14:35:54.411Z,100.00
2022-08-23T14:38:23.943Z,100.00
2022-08-23T14:40:55.121Z,100.00
2022-08-23T14:43:23.068Z,100.00
2022-08-23T14:45:54.283Z,100.00
2022-08-23T14:48:23.266Z,100.00
2022-08-23T14:50:51.387Z,100.00
2022-08-23T14:53:23.911Z,100.00
2022-08-23T14:56:12.271Z,100.00
2022-08-23T14:58:42.839Z,100.00
2022-08-23T15:01:11.262Z,100.00
2022-08-23T15:03:41.856Z,100.00
2022-08-23T15:06:09.960Z,100.00
2022-08-23T15:08:38.151Z,100.00
2022-08-23T15:14:00.100Z,100.00
2022-08-23T15:16:28.903Z,100.00
2022-08-23T15:18:58.004Z,100.00
2022-08-23T15:21:25.910Z,100.00
2022-08-23T15:23:53.994Z,100.00
2022-08-23T15:26:25.045Z,100.00
2022-08-23T15:28:53.487Z,96.55
2022-08-23T15:31:22.018Z,92.72
2022-08-23T15:33:50.231Z,91.58
2022-08-23T15:36:18.319Z,91.74
2022-08-23T15:38:48.835Z,92.39
2022-08-23T15:41:17.874Z,92.52
2022-08-23T15:43:47.562Z,93.94
2022-08-23T15:46:19.847Z,94.91
2022-08-23T15:48:52.070Z,95.28
2022-08-23T15:51:20.405Z,98.66
2022-08-23T15:53:48.713Z,99.34
2022-08-23T15:56:20.370Z,99.36
2022-08-23T15:58:50.234Z,100.00
2022-08-23T16:01:21.735Z,100.00
2022-08-23T16:03:52.436Z,100.00
2022-08-23T16:06:20.403Z,100.00
2022-08-23T16:08:52.626Z,100.00
2022-08-23T16:11:21.615Z,100.00
2022-08-23T16:13:55.398Z,100.00
2022-08-23T16:16:27.327Z,100.00
2022-08-23T16:18:55.538Z,100.00
2022-08-23T16:21:25.310Z,100.00
2022-08-23T16:23:53.256Z,100.00
2022-08-23T16:26:24.978Z,100.00
2022-08-23T16:29:07.447Z,100.00
2022-08-23T16:31:38.944Z,100.00
2022-08-23T16:34:09.613Z,100.00
2022-08-23T16:36:37.717Z,100.00
2022-08-23T16:39:06.679Z,100.00
2022-08-23T16:41:34.591Z,100.00
2022-08-23T16:44:02.527Z,100.00
2022-08-23T16:46:32.167Z,100.00
2022-08-23T16:49:00.090Z,100.00
2022-08-23T16:51:28.045Z,100.00
2022-08-23T16:54:02.488Z,100.00
2022-08-23T16:56:31.689Z,100.00
2022-08-23T16:59:00.088Z,100.00
2022-08-23T17:01:29.227Z,100.00
2022-08-23T17:03:58.516Z,100.00
2022-08-23T17:06:26.562Z,100.00
2022-08-23T17:08:54.454Z,100.00
2022-08-23T17:11:22.400Z,100.00
2022-08-23T17:13:50.993Z,100.00
2022-08-23T17:16:19.335Z,100.00
2022-08-23T17:18:47.268Z,100.00
2022-08-23T17:21:20.223Z,100.00
2022-08-23T17:23:48.192Z,100.00
2022-08-23T17:26:16.112Z,100.00
2022-08-23T17:28:44.163Z,100.00
2022-08-23T17:31:13.252Z,100.00
2022-08-23T17:33:41.903Z,100.00
2022-08-23T17:36:24.844Z,100.00
2022-08-23T17:38:52.801Z,100.00
2022-08-23T17:41:20.759Z,100.00
2022-08-23T17:43:48.974Z,100.00
2022-08-23T17:46:16.958Z,100.00
2022-08-23T17:48:44.943Z,100.00
2022-08-23T17:51:12.854Z,100.00
2022-08-23T17:53:42.419Z,100.00
2022-08-23T17:56:12.441Z,100.00
2022-08-23T17:58:40.579Z,100.00
2022-08-23T18:01:09.390Z,100.00
2022-08-23T18:03:37.392Z,100.00
2022-08-23T18:06:11.234Z,100.00
2022-08-23T18:08:47.276Z,100.00
2022-08-23T18:11:15.881Z,100.00
2022-08-23T18:13:44.395Z,100.00
2022-08-23T18:16:12.517Z,100.00
2022-08-23T18:18:40.529Z,100.00
2022-08-23T18:21:09.831Z,100.00
2022-08-23T18:23:39.024Z,100.00
2022-08-23T18:26:30.603Z,100.00
2022-08-23T18:28:57.639Z,100.00
2022-08-23T18:31:25.665Z,100.00
2022-08-23T18:33:57.110Z,100.00
2022-08-23T18:36:29.811Z,100.00
2022-08-23T18:38:57.980Z,100.00
2022-08-23T18:41:27.246Z,100.00
2022-08-23T18:43:55.197Z,100.00
2022-08-23T18:46:23.311Z,100.00
2022-08-23T18:48:53.274Z,100.00
2022-08-23T18:51:22.232Z,100.00
2022-08-23T18:53:50.182Z,100.00
2022-08-23T18:56:18.387Z,100.00
2022-08-23T18:58:47.926Z,100.00
2022-08-23T19:01:26.483Z,100.00
2022-08-23T19:03:57.408Z,100.00
2022-08-23T19:06:25.452Z,100.00
2022-08-23T19:08:53.402Z,100.00
2022-08-23T19:11:23.248Z,100.00
2022-08-23T19:13:52.563Z,100.00
2022-08-23T19:16:22.218Z,100.00
2022-08-23T19:18:51.644Z,100.00
2022-08-23T19:21:22.417Z,100.00
2022-08-23T19:23:52.327Z,100.00
2022-08-23T19:26:23.752Z,100.00
2022-08-23T19:28:54.005Z,100.00
2022-08-23T19:31:22.013Z,100.00
2022-08-23T19:33:50.996Z,100.00
2022-08-23T19:36:44.845Z,100.00
2022-08-23T19:39:08.956Z,100.00
2022-08-23T19:41:37.317Z,100.00
2022-08-23T19:44:07.831Z,100.00
2022-08-23T19:46:36.550Z,100.00
2022-08-23T19:49:07.127Z,100.00
2022-08-23T19:51:35.456Z,100.00
2022-08-23T19:54:09.895Z,100.00
2022-08-23T19:56:42.460Z,100.00
2022-08-23T19:59:16.900Z,100.00
2022-08-23T20:01:45.425Z,100.00
2022-08-23T20:04:13.831Z,100.00
2022-08-23T20:06:41.780Z,100.00
2022-08-23T20:09:10.531Z,100.00
2022-08-23T20:11:39.201Z,100.00
2022-08-23T20:14:07.576Z,100.00
2022-08-23T20:16:38.296Z,100.00
2022-08-23T20:19:10.013Z,100.00
2022-08-23T20:21:38.337Z,100.00
2022-08-23T20:24:05.834Z,100.00
2022-08-23T20:26:37.299Z,100.00
2022-08-23T20:29:06.669Z,100.00
2022-08-23T20:31:40.061Z,100.00
2022-08-23T20:34:09.602Z,100.00
2022-08-23T20:36:37.880Z,100.00
2022-08-23T20:39:06.150Z,100.00
2022-08-23T20:41:36.253Z,100.00
2022-08-23T20:44:05.522Z,100.00
2022-08-23T20:46:33.798Z,100.00
2022-08-23T20:49:03.393Z,100.00
2022-08-23T20:51:31.991Z,100.00
2022-08-23T20:54:04.922Z,100.00
2022-08-23T20:56:33.139Z,100.00
2022-08-23T20:59:01.351Z,100.00
2022-08-23T21:01:29.234Z,100.00
2022-08-23T21:03:57.158Z,100.00
2022-08-23T21:06:29.120Z,100.00
2022-08-23T21:09:00.085Z,100.00
2022-08-23T21:11:29.928Z,100.00
2022-08-23T21:13:58.713Z,100.00
2022-08-23T21:16:27.728Z,100.00
2022-08-23T21:18:56.873Z,100.00
2022-08-23T21:21:27.424Z,100.00
2022-08-23T21:23:55.367Z,100.00
2022-08-23T21:26:23.960Z,100.00
2022-08-23T21:28:52.915Z,100.00
2022-08-23T21:31:23.855Z,100.00
2022-08-23T21:33:52.767Z,100.00
2022-08-23T21:36:22.524Z,100.00
2022-08-23T21:38:52.562Z,100.00
2022-08-23T21:41:36.113Z,100.00
2022-08-23T21:44:09.855Z,100.00
2022-08-23T21:46:38.628Z,100.00
2022-08-23T21:49:07.887Z,100.00
2022-08-23T21:51:36.290Z,100.00
2022-08-23T21:54:09.034Z,100.00
2022-08-23T21:56:36.982Z,100.00
2022-08-23T21:59:08.563Z,100.00
2022-08-23T22:01:37.446Z,100.00
2022-08-23T22:04:07.458Z,100.00
2022-08-23T22:06:38.866Z,100.00
2022-08-23T22:09:13.131Z,100.00
2022-08-23T22:11:42.932Z,100.00
2022-08-23T22:14:12.680Z,100.00
2022-08-23T22:16:44.120Z,100.00
2022-08-23T22:19:13.068Z,100.00
2022-08-23T22:21:41.419Z,100.00
2022-08-23T22:24:11.518Z,100.00
2022-08-23T22:26:40.386Z,100.00
2022-08-23T22:29:09.014Z,100.00
2022-08-23T22:31:39.356Z,100.00
2022-08-23T22:34:09.271Z,100.00
2022-08-23T22:36:37.729Z,100.00
2022-08-23T22:39:06.167Z,100.00
2022-08-23T22:41:35.468Z,100.00
2022-08-23T22:44:04.636Z,100.00
2022-08-23T22:46:35.233Z,100.00
2022-08-23T22:49:03.460Z,100.00
2022-08-23T22:51:33.597Z,100.00
2022-08-23T22:54:03.674Z,100.00
2022-08-23T22:56:33.467Z,100.00
2022-08-23T22:59:02.777Z,100.00
2022-08-23T23:01:32.999Z,100.00
2022-08-23T23:04:04.083Z,100.00
2022-08-23T23:06:32.067Z,100.00
2022-08-23T23:09:00.510Z,100.00
2022-08-23T23:11:29.364Z,100.00
2022-08-23T23:13:58.702Z,100.00
2022-08-23T23:16:30.817Z,100.00
2022-08-23T23:19:16.885Z,100.00
2022-08-23T23:21:50.190Z,100.00
2022-08-23T23:24:20.217Z,100.00
2022-08-23T23:26:48.348Z,100.00
2022-08-23T23:29:16.249Z,100.00
2022-08-23T23:31:45.742Z,100.00
2022-08-23T23:34:13.787Z,100.00
2022-08-23T23:36:42.006Z,100.00
2022-08-23T23:39:12.672Z,100.00
2022-08-23T23:41:41.231Z,100.00
2022-08-23T23:44:09.895Z,100.00
2022-08-23T23:46:37.780Z,100.00
2022-08-23T23:49:07.134Z,100.00
2022-08-23T23:51:35.038Z,100.00
2022-08-23T23:54:03.175Z,100.00
2022-08-23T23:56:35.434Z,100.00
2022-08-23T23:59:03.359Z,100.00
